sensor_id;sensor_type;location;lat;lon;timestamp;pressure;altitude;pressure_sealevel;temperature;humidity
6208;BME280;3137;51.550;7.060;2022-09-03T00:02:13;65765.94;;;14.96;59.48
6208;BME280;3137;51.550;7.060;2022-09-03T00:04:54;65745.09;;;14.89;59.86
6208;BME280;3137;51.550;7.060;2022-09-03T00:10:24;65729.16;;;14.69;60.62
6208;BME280;3137;51.550;7.060;2022-09-03T00:12:56;65729.72;;;14.70;60.55
6208;BME280;3137;51.550;7.060;2022-09-03T00:15:25;65732.34;;;14.70;60.80
6208;BME280;3137;51.550;7.060;2022-09-03T00:18:08;65711.94;;;14.53;61.29
6208;BME280;3137;51.550;7.060;2022-09-03T00:20:41;65708.59;;;14.50;61.14
6208;BME280;3137;51.550;7.060;2022-09-03T00:23:15;65719.75;;;14.53;61.39
6208;BME280;3137;51.550;7.060;2022-09-03T00:25:52;65712.34;;;14.44;61.50
6208;BME280;3137;51.550;7.060;2022-09-03T00:28:53;65692.63;;;14.38;61.87
6208;BME280;3137;51.550;7.060;2022-09-03T00:31:29;65681.47;;;14.28;62.23
6208;BME280;3137;51.550;7.060;2022-09-03T00:34:05;65691.22;;;14.25;62.44
6208;BME280;3137;51.550;7.060;2022-09-03T00:36:38;65697.16;;;14.28;62.20
6208;BME280;3137;51.550;7.060;2022-09-03T00:39:14;65682.09;;;14.21;62.73
6208;BME280;3137;51.550;7.060;2022-09-03T00:44:35;65680.47;;;14.13;63.08
6208;BME280;3137;51.550;7.060;2022-09-03T00:47:23;65656.84;;;14.03;63.56
6208;BME280;3137;51.550;7.060;2022-09-03T00:50:03;65655.34;;;14.04;63.41
6208;BME280;3137;51.550;7.060;2022-09-03T00:52:46;65653.34;;;13.97;63.61
6208;BME280;3137;51.550;7.060;2022-09-03T01:00:51;65640.72;;;13.88;64.16
6208;BME280;3137;51.550;7.060;2022-09-03T01:03:42;65638.72;;;13.82;64.33
6208;BME280;3137;51.550;7.060;2022-09-03T01:06:18;65636.66;;;13.82;64.46
6208;BME280;3137;51.550;7.060;2022-09-03T01:17:13;65607.72;;;13.63;65.20
6208;BME280;3137;51.550;7.060;2022-09-03T01:22:42;65602.94;;;13.54;65.41
6208;BME280;3137;51.550;7.060;2022-09-03T01:25:37;65622.25;;;13.62;65.72
6208;BME280;3137;51.550;7.060;2022-09-03T01:28:40;65598.84;;;13.55;65.60
6208;BME280;3137;51.550;7.060;2022-09-03T01:31:17;65614.47;;;13.55;65.52
6208;BME280;3137;51.550;7.060;2022-09-03T01:39:18;65605.75;;;13.49;65.93
6208;BME280;3137;51.550;7.060;2022-09-03T01:44:58;65593.28;;;13.49;65.82
6208;BME280;3137;51.550;7.060;2022-09-03T01:55:50;65580.50;;;13.38;66.52
6208;BME280;3137;51.550;7.060;2022-09-03T01:58:28;65575.09;;;13.35;66.44
6208;BME280;3137;51.550;7.060;2022-09-03T02:01:02;65581.81;;;13.34;66.53
6208;BME280;3137;51.550;7.060;2022-09-03T02:03:38;65594.47;;;13.36;66.43
6208;BME280;3137;51.550;7.060;2022-09-03T02:06:07;65585.38;;;13.33;66.43
6208;BME280;3137;51.550;7.060;2022-09-03T02:08:34;65586.28;;;13.38;66.13
6208;BME280;3137;51.550;7.060;2022-09-03T02:11:05;65586.66;;;13.36;66.50
6208;BME280;3137;51.550;7.060;2022-09-03T02:16:14;65577.00;;;13.32;66.44
6208;BME280;3137;51.550;7.060;2022-09-03T02:18:45;65568.81;;;13.27;66.62
6208;BME280;3137;51.550;7.060;2022-09-03T02:21:18;65572.53;;;13.28;66.71
6208;BME280;3137;51.550;7.060;2022-09-03T02:23:46;65575.16;;;13.28;66.62
6208;BME280;3137;51.550;7.060;2022-09-03T02:26:17;65560.31;;;13.17;67.21
6208;BME280;3137;51.550;7.060;2022-09-03T02:28:45;65563.47;;;13.17;67.02
6208;BME280;3137;51.550;7.060;2022-09-03T02:31:12;65566.47;;;13.15;67.44
6208;BME280;3137;51.550;7.060;2022-09-03T02:33:41;65561.63;;;13.13;67.30
6208;BME280;3137;51.550;7.060;2022-09-03T02:36:10;65555.50;;;13.15;67.22
6208;BME280;3137;51.550;7.060;2022-09-03T02:38:40;65571.84;;;13.18;67.17
6208;BME280;3137;51.550;7.060;2022-09-03T02:41:07;65550.88;;;13.08;67.55
6208;BME280;3137;51.550;7.060;2022-09-03T02:43:47;65551.78;;;13.07;67.55
6208;BME280;3137;51.550;7.060;2022-09-03T02:46:20;65546.81;;;13.02;67.89
6208;BME280;3137;51.550;7.060;2022-09-03T02:48:47;65549.03;;;13.04;67.80
6208;BME280;3137;51.550;7.060;2022-09-03T02:51:13;65550.72;;;12.99;67.98
6208;BME280;3137;51.550;7.060;2022-09-03T02:53:41;65558.00;;;12.98;68.12
6208;BME280;3137;51.550;7.060;2022-09-03T02:56:08;65536.03;;;12.97;68.00
6208;BME280;3137;51.550;7.060;2022-09-03T02:58:34;65540.50;;;13.01;67.96
6208;BME280;3137;51.550;7.060;2022-09-03T03:01:02;65541.09;;;12.94;68.04
6208;BME280;3137;51.550;7.060;2022-09-03T03:03:29;65544.06;;;12.92;68.44
6208;BME280;3137;51.550;7.060;2022-09-03T03:05:57;65537.19;;;12.91;68.46
6208;BME280;3137;51.550;7.060;2022-09-03T03:08:26;65521.44;;;12.81;69.03
6208;BME280;3137;51.550;7.060;2022-09-03T03:10:55;65513.84;;;12.70;69.78
6208;BME280;3137;51.550;7.060;2022-09-03T03:13:25;65506.03;;;12.70;69.70
6208;BME280;3137;51.550;7.060;2022-09-03T03:15:55;65502.72;;;12.66;69.84
6208;BME280;3137;51.550;7.060;2022-09-03T03:18:21;65510.19;;;12.61;70.10
6208;BME280;3137;51.550;7.060;2022-09-03T03:23:14;65497.72;;;12.62;70.09
6208;BME280;3137;51.550;7.060;2022-09-03T03:25:41;65513.34;;;12.62;70.02
6208;BME280;3137;51.550;7.060;2022-09-03T03:28:07;65513.69;;;12.67;69.92
6208;BME280;3137;51.550;7.060;2022-09-03T03:30:36;65500.50;;;12.64;70.01
6208;BME280;3137;51.550;7.060;2022-09-03T03:33:06;65513.34;;;12.62;69.98
6208;BME280;3137;51.550;7.060;2022-09-03T03:35:32;65503.47;;;12.62;70.17
6208;BME280;3137;51.550;7.060;2022-09-03T03:37:59;65500.16;;;12.59;70.13
6208;BME280;3137;51.550;7.060;2022-09-03T03:40:25;65497.75;;;12.55;70.59
6208;BME280;3137;51.550;7.060;2022-09-03T03:45:19;65491.66;;;12.49;70.82
6208;BME280;3137;51.550;7.060;2022-09-03T03:47:46;65477.34;;;12.46;70.98
6208;BME280;3137;51.550;7.060;2022-09-03T03:50:12;65488.88;;;12.47;70.94
6208;BME280;3137;51.550;7.060;2022-09-03T03:52:38;65488.50;;;12.49;70.91
6208;BME280;3137;51.550;7.060;2022-09-03T03:55:05;65490.38;;;12.46;71.06
6208;BME280;3137;51.550;7.060;2022-09-03T03:57:32;65472.94;;;12.34;71.50
6208;BME280;3137;51.550;7.060;2022-09-03T03:59:58;65470.34;;;12.34;71.60
6208;BME280;3137;51.550;7.060;2022-09-03T04:02:25;65471.13;;;12.30;71.79
6208;BME280;3137;51.550;7.060;2022-09-03T04:04:51;65443.28;;;12.19;72.20
6208;BME280;3137;51.550;7.060;2022-09-03T04:07:18;65458.16;;;12.23;72.11
6208;BME280;3137;51.550;7.060;2022-09-03T04:09:44;65446.13;;;12.15;72.50
6208;BME280;3137;51.550;7.060;2022-09-03T04:12:11;65443.16;;;12.09;72.79
6208;BME280;3137;51.550;7.060;2022-09-03T04:14:37;65463.59;;;12.11;72.71
6208;BME280;3137;51.550;7.060;2022-09-03T04:17:04;65461.94;;;12.10;72.73
6208;BME280;3137;51.550;7.060;2022-09-03T04:19:30;65444.84;;;12.04;73.23
6208;BME280;3137;51.550;7.060;2022-09-03T04:21:56;65446.31;;;12.10;72.90
6208;BME280;3137;51.550;7.060;2022-09-03T04:24:23;65434.66;;;11.99;73.28
6208;BME280;3137;51.550;7.060;2022-09-03T04:26:49;65435.56;;;12.05;73.21
6208;BME280;3137;51.550;7.060;2022-09-03T04:29:16;65436.34;;;12.01;73.32
6208;BME280;3137;51.550;7.060;2022-09-03T04:31:43;65447.63;;;12.06;72.92
6208;BME280;3137;51.550;7.060;2022-09-03T04:34:29;65428.34;;;11.98;73.36
6208;BME280;3137;51.550;7.060;2022-09-03T04:36:56;65437.09;;;11.97;73.36
6208;BME280;3137;51.550;7.060;2022-09-03T04:39:24;65435.78;;;12.00;73.35
6208;BME280;3137;51.550;7.060;2022-09-03T04:41:51;65432.22;;;12.02;73.11
6208;BME280;3137;51.550;7.060;2022-09-03T04:44:17;65440.22;;;12.04;73.15
6208;BME280;3137;51.550;7.060;2022-09-03T04:46:44;65431.88;;;11.97;73.45
6208;BME280;3137;51.550;7.060;2022-09-03T04:49:12;65433.38;;;11.96;73.39
6208;BME280;3137;51.550;7.060;2022-09-03T04:51:40;65430.81;;;11.89;73.86
6208;BME280;3137;51.550;7.060;2022-09-03T04:54:06;65438.22;;;11.91;73.69
6208;BME280;3137;51.550;7.060;2022-09-03T04:56:33;65413.00;;;11.87;74.02
6208;BME280;3137;51.550;7.060;2022-09-03T04:59:05;65427.31;;;11.83;74.25
6208;BME280;3137;51.550;7.060;2022-09-03T05:01:33;65407.25;;;11.79;74.48
6208;BME280;3137;51.550;7.060;2022-09-03T05:04:01;65426.38;;;11.77;74.73
6208;BME280;3137;51.550;7.060;2022-09-03T05:06:29;65397.44;;;11.72;74.96
6208;BME280;3137;51.550;7.060;2022-09-03T05:08:57;65412.81;;;11.77;74.64
6208;BME280;3137;51.550;7.060;2022-09-03T05:11:24;65420.44;;;11.81;74.66
6208;BME280;3137;51.550;7.060;2022-09-03T05:13:53;65408.94;;;11.80;74.86
6208;BME280;3137;51.550;7.060;2022-09-03T05:16:21;65414.13;;;11.80;74.99
6208;BME280;3137;51.550;7.060;2022-09-03T05:18:51;65415.06;;;11.79;75.04
6208;BME280;3137;51.550;7.060;2022-09-03T05:21:19;65426.38;;;11.77;75.13
6208;BME280;3137;51.550;7.060;2022-09-03T05:23:47;65423.41;;;11.79;75.03
6208;BME280;3137;51.550;7.060;2022-09-03T05:26:16;65416.69;;;11.88;74.72
6208;BME280;3137;51.550;7.060;2022-09-03T05:28:43;65424.47;;;11.95;74.46
6208;BME280;3137;51.550;7.060;2022-09-03T05:31:12;65443.03;;;11.93;74.65
6208;BME280;3137;51.550;7.060;2022-09-03T05:33:50;65436.50;;;12.03;74.45
6208;BME280;3137;51.550;7.060;2022-09-03T05:36:20;65441.09;;;12.10;74.11
6208;BME280;3137;51.550;7.060;2022-09-03T05:38:48;65447.41;;;12.11;74.17
6208;BME280;3137;51.550;7.060;2022-09-03T05:41:16;65459.63;;;12.22;73.94
6208;BME280;3137;51.550;7.060;2022-09-03T05:43:47;65473.72;;;12.30;73.39
6208;BME280;3137;51.550;7.060;2022-09-03T05:46:17;65476.84;;;12.38;73.78
6208;BME280;3137;51.550;7.060;2022-09-03T05:48:43;65494.25;;;12.49;73.03
6208;BME280;3137;51.550;7.060;2022-09-03T05:51:13;65498.13;;;12.60;72.56
6208;BME280;3137;51.550;7.060;2022-09-03T05:53:47;65498.28;;;12.62;72.43
6208;BME280;3137;51.550;7.060;2022-09-03T05:56:19;65515.72;;;12.74;71.95
6208;BME280;3137;51.550;7.060;2022-09-03T05:58:52;65516.25;;;12.74;72.16
6208;BME280;3137;51.550;7.060;2022-09-03T06:01:23;65525.09;;;12.89;71.58
6208;BME280;3137;51.550;7.060;2022-09-03T06:03:56;65536.81;;;12.93;71.38
6208;BME280;3137;51.550;7.060;2022-09-03T06:06:24;65539.94;;;13.01;71.28
6208;BME280;3137;51.550;7.060;2022-09-03T06:08:55;65555.13;;;13.10;70.62
6208;BME280;3137;51.550;7.060;2022-09-03T06:11:24;65558.81;;;13.18;70.46
6208;BME280;3137;51.550;7.060;2022-09-03T06:14:03;65577.72;;;13.35;70.26
6208;BME280;3137;51.550;7.060;2022-09-03T06:16:32;65579.00;;;13.39;70.14
6208;BME280;3137;51.550;7.060;2022-09-03T06:18:59;65593.81;;;13.50;69.70
6208;BME280;3137;51.550;7.060;2022-09-03T06:21:27;65606.25;;;13.57;69.39
6208;BME280;3137;51.550;7.060;2022-09-03T06:23:55;65611.06;;;13.66;68.49
6208;BME280;3137;51.550;7.060;2022-09-03T06:26:26;65619.97;;;13.74;68.55
6208;BME280;3137;51.550;7.060;2022-09-03T06:28:53;65629.06;;;13.77;67.97
6208;BME280;3137;51.550;7.060;2022-09-03T06:33:48;65649.47;;;13.94;68.03
6208;BME280;3137;51.550;7.060;2022-09-03T06:36:17;65647.72;;;13.99;67.58
6208;BME280;3137;51.550;7.060;2022-09-03T06:38:44;65676.03;;;14.09;67.96
6208;BME280;3137;51.550;7.060;2022-09-03T06:41:16;65668.53;;;14.14;67.41
6208;BME280;3137;51.550;7.060;2022-09-03T06:44:10;65681.31;;;14.25;66.22
6208;BME280;3137;51.550;7.060;2022-09-03T06:46:38;65684.81;;;14.31;66.46
6208;BME280;3137;51.550;7.060;2022-09-03T06:51:35;65698.19;;;14.43;66.99
6208;BME280;3137;51.550;7.060;2022-09-03T06:54:04;65709.88;;;14.54;65.74
6208;BME280;3137;51.550;7.060;2022-09-03T06:56:32;65723.22;;;14.66;65.03
6208;BME280;3137;51.550;7.060;2022-09-03T06:59:10;65747.84;;;14.91;63.88
6208;BME280;3137;51.550;7.060;2022-09-03T07:01:37;65754.75;;;14.93;63.79
6208;BME280;3137;51.550;7.060;2022-09-03T07:06:38;65768.44;;;15.10;64.25
6208;BME280;3137;51.550;7.060;2022-09-03T07:11:32;65785.31;;;15.28;63.71
6208;BME280;3137;51.550;7.060;2022-09-03T07:14:02;65799.06;;;15.38;63.05
6208;BME280;3137;51.550;7.060;2022-09-03T07:16:32;65807.41;;;15.46;62.48
6208;BME280;3137;51.550;7.060;2022-09-03T07:21:27;65827.63;;;15.66;62.70
6208;BME280;3137;51.550;7.060;2022-09-03T07:23:55;65842.88;;;15.76;61.99
6208;BME280;3137;51.550;7.060;2022-09-03T07:26:24;65849.56;;;15.82;62.40
6208;BME280;3137;51.550;7.060;2022-09-03T07:33:58;65886.88;;;16.16;60.98
6208;BME280;3137;51.550;7.060;2022-09-03T07:36:27;65887.75;;;16.21;60.53
6208;BME280;3137;51.550;7.060;2022-09-03T07:39:00;65900.59;;;16.33;59.65
6208;BME280;3137;51.550;7.060;2022-09-03T07:41:26;65905.97;;;16.36;59.83
6208;BME280;3137;51.550;7.060;2022-09-03T07:43:54;65917.91;;;16.42;59.61
6208;BME280;3137;51.550;7.060;2022-09-03T07:46:23;65933.50;;;16.56;59.01
6208;BME280;3137;51.550;7.060;2022-09-03T07:48:55;65952.50;;;16.73;57.41
6208;BME280;3137;51.550;7.060;2022-09-03T07:51:24;65946.84;;;16.75;57.95
6208;BME280;3137;51.550;7.060;2022-09-03T07:53:53;65959.19;;;16.80;57.55
6208;BME280;3137;51.550;7.060;2022-09-03T07:56:20;65947.25;;;16.73;58.06
6208;BME280;3137;51.550;7.060;2022-09-03T07:58:47;65962.50;;;16.83;58.03
6208;BME280;3137;51.550;7.060;2022-09-03T08:01:18;65970.47;;;16.92;57.94
6208;BME280;3137;51.550;7.060;2022-09-03T08:03:47;65992.63;;;17.10;56.85
6208;BME280;3137;51.550;7.060;2022-09-03T08:06:15;65987.22;;;17.08;57.02
6208;BME280;3137;51.550;7.060;2022-09-03T08:08:41;66001.13;;;17.20;57.21
6208;BME280;3137;51.550;7.060;2022-09-03T08:11:15;66014.84;;;17.38;56.78
6208;BME280;3137;51.550;7.060;2022-09-03T08:16:17;66031.66;;;17.46;56.30
6208;BME280;3137;51.550;7.060;2022-09-03T08:18:44;66045.19;;;17.60;56.44
6208;BME280;3137;51.550;7.060;2022-09-03T08:21:16;66057.84;;;17.70;55.31
6208;BME280;3137;51.550;7.060;2022-09-03T08:26:11;66075.50;;;17.91;55.08
6208;BME280;3137;51.550;7.060;2022-09-03T08:31:19;66086.25;;;18.03;54.43
6208;BME280;3137;51.550;7.060;2022-09-03T08:36:19;66090.00;;;18.04;54.45
6208;BME280;3137;51.550;7.060;2022-09-03T08:38:48;66098.91;;;18.12;54.80
6208;BME280;3137;51.550;7.060;2022-09-03T08:41:32;66111.34;;;18.26;54.28
6208;BME280;3137;51.550;7.060;2022-09-03T08:46:50;66117.50;;;18.31;53.68
6208;BME280;3137;51.550;7.060;2022-09-03T08:50:03;66123.47;;;18.34;54.02
6208;BME280;3137;51.550;7.060;2022-09-03T08:54:57;66142.06;;;18.54;53.40
6208;BME280;3137;51.550;7.060;2022-09-03T08:59:54;66167.75;;;18.77;53.79
6208;BME280;3137;51.550;7.060;2022-09-03T09:08:31;66206.25;;;19.12;52.42
6208;BME280;3137;51.550;7.060;2022-09-03T09:14:00;66239.63;;;19.40;52.16
6208;BME280;3137;51.550;7.060;2022-09-03T09:16:37;66246.31;;;19.46;51.86
6208;BME280;3137;51.550;7.060;2022-09-03T09:24:36;66245.69;;;19.53;51.93
6208;BME280;3137;51.550;7.060;2022-09-03T09:27:04;66252.97;;;19.60;51.04
6208;BME280;3137;51.550;7.060;2022-09-03T09:29:35;66257.69;;;19.59;50.74
6208;BME280;3137;51.550;7.060;2022-09-03T09:34:34;66284.16;;;19.78;50.85
6208;BME280;3137;51.550;7.060;2022-09-03T09:39:29;66318.41;;;20.12;50.46
6208;BME280;3137;51.550;7.060;2022-09-03T09:41:59;66324.72;;;20.20;49.44
6208;BME280;3137;51.550;7.060;2022-09-03T09:44:34;66329.03;;;20.22;49.70
6208;BME280;3137;51.550;7.060;2022-09-03T09:47:24;66330.53;;;20.21;48.99
6208;BME280;3137;51.550;7.060;2022-09-03T09:49:54;66334.63;;;20.27;49.32
6208;BME280;3137;51.550;7.060;2022-09-03T09:52:23;66346.38;;;20.38;49.89
6208;BME280;3137;51.550;7.060;2022-09-03T09:54:52;66363.16;;;20.53;48.88
6208;BME280;3137;51.550;7.060;2022-09-03T09:57:24;66362.09;;;20.61;47.73
6208;BME280;3137;51.550;7.060;2022-09-03T10:02:39;66379.38;;;20.68;48.79
6208;BME280;3137;51.550;7.060;2022-09-03T10:07:39;66389.03;;;20.79;47.56
6208;BME280;3137;51.550;7.060;2022-09-03T10:10:14;66389.03;;;20.79;47.90
6208;BME280;3137;51.550;7.060;2022-09-03T10:12:58;66383.84;;;20.72;47.50
6208;BME280;3137;51.550;7.060;2022-09-03T10:20:38;66413.63;;;21.01;47.99
6208;BME280;3137;51.550;7.060;2022-09-03T10:23:15;66434.72;;;21.18;47.23
6208;BME280;3137;51.550;7.060;2022-09-03T10:28:30;66440.25;;;21.30;47.16
6208;BME280;3137;51.550;7.060;2022-09-03T10:33:43;66526.53;;;22.02;46.00
6208;BME280;3137;51.550;7.060;2022-09-03T10:47:34;66548.38;;;22.21;44.20
6208;BME280;3137;51.550;7.060;2022-09-03T10:50:14;66555.81;;;22.31;43.90
6208;BME280;3137;51.550;7.060;2022-09-03T10:53:20;66569.50;;;22.38;43.46
6208;BME280;3137;51.550;7.060;2022-09-03T10:56:01;66552.84;;;22.25;43.33
6208;BME280;3137;51.550;7.060;2022-09-03T11:01:30;66543.91;;;22.17;43.92
6208;BME280;3137;51.550;7.060;2022-09-03T11:06:54;66603.41;;;22.74;42.50
6208;BME280;3137;51.550;7.060;2022-09-03T11:09:34;66605.63;;;22.76;42.60
6208;BME280;3137;51.550;7.060;2022-09-03T11:12:07;66612.22;;;22.79;42.55
6208;BME280;3137;51.550;7.060;2022-09-03T11:22:40;66642.31;;;23.04;41.04
6208;BME280;3137;51.550;7.060;2022-09-03T11:25:11;66622.31;;;22.89;42.14
6208;BME280;3137;51.550;7.060;2022-09-03T11:32:53;66586.06;;;22.58;43.01
6208;BME280;3137;51.550;7.060;2022-09-03T11:37:58;66602.28;;;22.73;42.81
6208;BME280;3137;51.550;7.060;2022-09-03T11:40:34;66613.34;;;22.80;42.57
6208;BME280;3137;51.550;7.060;2022-09-03T11:43:13;66609.56;;;22.79;41.91
6208;BME280;3137;51.550;7.060;2022-09-03T11:46:26;66606.19;;;22.76;42.77
6208;BME280;3137;51.550;7.060;2022-09-03T11:48:55;66623.44;;;22.90;41.72
6208;BME280;3137;51.550;7.060;2022-09-03T11:56:23;66652.97;;;23.14;41.42
6208;BME280;3137;51.550;7.060;2022-09-03T12:01:36;66657.75;;;23.23;40.81
6208;BME280;3137;51.550;7.060;2022-09-03T12:04:05;66638.16;;;23.05;41.52
6208;BME280;3137;51.550;7.060;2022-09-03T12:12:26;66676.81;;;23.41;41.47
6208;BME280;3137;51.550;7.060;2022-09-03T12:15:10;66683.94;;;23.45;40.52
6208;BME280;3137;51.550;7.060;2022-09-03T12:25:12;66691.78;;;23.52;40.64
6208;BME280;3137;51.550;7.060;2022-09-03T12:30:15;66687.31;;;23.48;41.78
6208;BME280;3137;51.550;7.060;2022-09-03T12:32:42;66703.56;;;23.63;41.14
6208;BME280;3137;51.550;7.060;2022-09-03T12:35:17;66717.44;;;23.73;40.50
6208;BME280;3137;51.550;7.060;2022-09-03T12:38:03;66701.50;;;23.63;41.00
6208;BME280;3137;51.550;7.060;2022-09-03T12:40:34;66696.44;;;23.58;41.26
6208;BME280;3137;51.550;7.060;2022-09-03T12:46:14;66677.38;;;23.41;41.86
6208;BME280;3137;51.550;7.060;2022-09-03T12:48:52;66666.63;;;23.39;41.87
6208;BME280;3137;51.550;7.060;2022-09-03T12:54:20;66690.25;;;23.53;42.18
6208;BME280;3137;51.550;7.060;2022-09-03T12:56:57;66699.25;;;23.61;40.81
6208;BME280;3137;51.550;7.060;2022-09-03T12:59:27;66682.97;;;23.46;41.54
6208;BME280;3137;51.550;7.060;2022-09-03T13:02:00;66702.47;;;23.61;41.49
6208;BME280;3137;51.550;7.060;2022-09-03T13:04:32;66702.59;;;23.64;41.48
6208;BME280;3137;51.550;7.060;2022-09-03T13:09:31;66699.81;;;23.61;41.61
6208;BME280;3137;51.550;7.060;2022-09-03T13:14:27;66686.75;;;23.47;41.53
6208;BME280;3137;51.550;7.060;2022-09-03T13:17:13;66691.94;;;23.54;42.16
6208;BME280;3137;51.550;7.060;2022-09-03T13:31:23;66679.16;;;23.35;41.82
6208;BME280;3137;51.550;7.060;2022-09-03T13:36:53;66689.72;;;23.52;41.91
6208;BME280;3137;51.550;7.060;2022-09-03T13:39:34;66705.19;;;23.54;41.61
6208;BME280;3137;51.550;7.060;2022-09-03T13:44:45;66715.91;;;23.74;41.36
6208;BME280;3137;51.550;7.060;2022-09-03T13:50:06;66719.13;;;23.74;42.22
6208;BME280;3137;51.550;7.060;2022-09-03T13:55:24;66666.00;;;23.28;43.42
6208;BME280;3137;51.550;7.060;2022-09-03T14:03:43;66665.63;;;23.30;42.94
6208;BME280;3137;51.550;7.060;2022-09-03T14:09:10;66627.94;;;22.94;44.01
6208;BME280;3137;51.550;7.060;2022-09-03T14:14:54;66611.09;;;22.78;44.79
6208;BME280;3137;51.550;7.060;2022-09-03T14:17:34;66614.44;;;22.82;45.22
6208;BME280;3137;51.550;7.060;2022-09-03T14:20:03;66616.69;;;22.84;45.39
6208;BME280;3137;51.550;7.060;2022-09-03T14:22:46;66617.81;;;22.85;45.17
6208;BME280;3137;51.550;7.060;2022-09-03T14:27:44;66592.19;;;22.64;45.70
6208;BME280;3137;51.550;7.060;2022-09-03T14:30:32;66586.06;;;22.58;46.21
6208;BME280;3137;51.550;7.060;2022-09-03T14:41:31;66578.22;;;22.51;47.05
6208;BME280;3137;51.550;7.060;2022-09-03T14:49:20;66595.41;;;22.64;47.65
6208;BME280;3137;51.550;7.060;2022-09-03T14:54:58;66623.50;;;22.83;47.28
6208;BME280;3137;51.550;7.060;2022-09-03T14:57:38;66609.25;;;22.74;47.70
6208;BME280;3137;51.550;7.060;2022-09-03T15:00:33;66611.81;;;22.82;46.90
6208;BME280;3137;51.550;7.060;2022-09-03T15:11:21;66618.00;;;22.87;47.15
6208;BME280;3137;51.550;7.060;2022-09-03T15:13:52;66607.72;;;22.75;47.11
6208;BME280;3137;51.550;7.060;2022-09-03T15:16:49;66603.81;;;22.72;47.87
6208;BME280;3137;51.550;7.060;2022-09-03T15:30:19;66624.56;;;22.91;46.96
6208;BME280;3137;51.550;7.060;2022-09-03T15:32:56;66623.03;;;22.92;46.96
6208;BME280;3137;51.550;7.060;2022-09-03T15:38:18;66621.91;;;22.91;48.77
6208;BME280;3137;51.550;7.060;2022-09-03T15:43:25;66620.09;;;22.87;49.25
6208;BME280;3137;51.550;7.060;2022-09-03T15:45:55;66617.81;;;22.85;48.91
6208;BME280;3137;51.550;7.060;2022-09-03T15:48:43;66623.59;;;22.92;49.52
6208;BME280;3137;51.550;7.060;2022-09-03T15:51:30;66637.44;;;23.02;49.75
6208;BME280;3137;51.550;7.060;2022-09-03T15:54:08;66639.25;;;23.06;49.05
6208;BME280;3137;51.550;7.060;2022-09-03T15:56:52;66635.66;;;23.08;49.12
6208;BME280;3137;51.550;7.060;2022-09-03T15:59:48;66631.28;;;22.97;49.13
6208;BME280;3137;51.550;7.060;2022-09-03T16:02:26;66624.13;;;22.93;49.92
6208;BME280;3137;51.550;7.060;2022-09-03T16:10:19;66614.13;;;22.76;50.09
6208;BME280;3137;51.550;7.060;2022-09-03T16:13:05;66606.75;;;22.77;50.08
6208;BME280;3137;51.550;7.060;2022-09-03T16:18:31;66602.84;;;22.73;50.55
6208;BME280;3137;51.550;7.060;2022-09-03T16:21:14;66595.31;;;22.71;50.27
6208;BME280;3137;51.550;7.060;2022-09-03T16:24:02;66599.88;;;22.68;50.70
6208;BME280;3137;51.550;7.060;2022-09-03T16:26:35;66596.53;;;22.65;50.50
6208;BME280;3137;51.550;7.060;2022-09-03T16:29:16;66593.16;;;22.62;50.76
6208;BME280;3137;51.550;7.060;2022-09-03T16:54:04;66591.38;;;22.68;49.75
6208;BME280;3137;51.550;7.060;2022-09-03T17:09:46;66558.28;;;22.28;51.44
6208;BME280;3137;51.550;7.060;2022-09-03T17:12:37;66547.41;;;22.23;51.35
6208;BME280;3137;51.550;7.060;2022-09-03T17:18:10;66537.31;;;22.14;51.89
6208;BME280;3137;51.550;7.060;2022-09-03T17:31:48;66522.75;;;22.01;52.93
6208;BME280;3137;51.550;7.060;2022-09-03T17:39:51;66523.16;;;21.98;55.30
6208;BME280;3137;51.550;7.060;2022-09-03T17:42:26;66516.59;;;21.95;56.51
6208;BME280;3137;51.550;7.060;2022-09-03T17:50:15;66486.63;;;21.63;60.24
6208;BME280;3137;51.550;7.060;2022-09-03T17:52:47;66478.97;;;21.58;60.82
6208;BME280;3137;51.550;7.060;2022-09-03T17:55:36;66464.97;;;21.46;61.31
6208;BME280;3137;51.550;7.060;2022-09-03T17:58:12;66447.22;;;21.32;61.54
6208;BME280;3137;51.550;7.060;2022-09-03T18:06:03;66452.91;;;21.30;62.04
6208;BME280;3137;51.550;7.060;2022-09-03T18:08:55;66439.78;;;21.23;62.27
6208;BME280;3137;51.550;7.060;2022-09-03T18:19:43;66420.19;;;21.05;63.02
6208;BME280;3137;51.550;7.060;2022-09-03T18:22:51;66415.00;;;20.98;63.80
6208;BME280;3137;51.550;7.060;2022-09-03T18:25:39;66401.88;;;20.91;64.34
6208;BME280;3137;51.550;7.060;2022-09-03T18:28:34;66393.50;;;20.83;64.89
6208;BME280;3137;51.550;7.060;2022-09-03T18:39:40;66378.25;;;20.67;67.11
6208;BME280;3137;51.550;7.060;2022-09-03T18:43:13;66366.34;;;20.53;68.48
6208;BME280;3137;51.550;7.060;2022-09-03T18:49:39;66345.25;;;20.37;69.23
6208;BME280;3137;51.550;7.060;2022-09-03T18:55:35;66328.06;;;20.23;70.52
6208;BME280;3137;51.550;7.060;2022-09-03T19:01:35;66325.13;;;20.18;71.00
6208;BME280;3137;51.550;7.060;2022-09-03T19:13:23;66295.66;;;19.94;73.40
6208;BME280;3137;51.550;7.060;2022-09-03T19:22:10;66288.22;;;19.85;74.16
6208;BME280;3137;51.550;7.060;2022-09-03T19:25:11;66280.59;;;19.80;74.67
6208;BME280;3137;51.550;7.060;2022-09-03T19:28:20;66270.91;;;19.69;75.24
6208;BME280;3137;51.550;7.060;2022-09-03T19:37:14;66263.81;;;19.65;76.64
6208;BME280;3137;51.550;7.060;2022-09-03T19:40:41;66251.50;;;19.53;77.46
6208;BME280;3137;51.550;7.060;2022-09-03T19:46:39;66236.81;;;19.38;78.74
6208;BME280;3137;51.550;7.060;2022-09-03T19:52:38;66227.50;;;19.32;78.15
6208;BME280;3137;51.550;7.060;2022-09-03T19:55:30;66226.38;;;19.31;77.93
6208;BME280;3137;51.550;7.060;2022-09-03T19:58:18;66211.28;;;19.17;78.46
6208;BME280;3137;51.550;7.060;2022-09-03T20:01:10;66206.13;;;19.10;78.17
6208;BME280;3137;51.550;7.060;2022-09-03T20:06:44;66184.25;;;18.97;78.12
6208;BME280;3137;51.550;7.060;2022-09-03T20:09:37;66181.38;;;18.85;78.86
6208;BME280;3137;51.550;7.060;2022-09-03T20:12:28;66179.84;;;18.86;78.79
6208;BME280;3137;51.550;7.060;2022-09-03T20:14:56;66166.47;;;18.74;79.70
6208;BME280;3137;51.550;7.060;2022-09-03T20:17:37;66168.16;;;18.75;80.08
6208;BME280;3137;51.550;7.060;2022-09-03T20:20:33;66158.66;;;18.66;80.77
6208;BME280;3137;51.550;7.060;2022-09-03T20:28:36;66137.41;;;18.47;81.99
6208;BME280;3137;51.550;7.060;2022-09-03T20:31:40;66134.63;;;18.45;81.99
6208;BME280;3137;51.550;7.060;2022-09-03T20:39:58;66115.66;;;18.27;83.70
6208;BME280;3137;51.550;7.060;2022-09-03T20:43:01;66106.72;;;18.19;84.44
6208;BME280;3137;51.550;7.060;2022-09-03T20:45:41;66105.63;;;18.18;84.49
6208;BME280;3137;51.550;7.060;2022-09-03T20:51:08;66101.53;;;18.12;84.71